createdAt,value
2018-01-12T00:00:39.714Z,30.40
2018-01-12T00:01:39.609Z,30.70
2018-01-12T00:02:39.727Z,29.80
2018-01-12T00:03:39.616Z,31.80
2018-01-12T00:04:39.633Z,31.80
2018-01-12T00:05:39.635Z,31.50
2018-01-12T00:06:39.640Z,31.10
2018-01-12T00:07:39.660Z,31.30
2018-01-12T00:08:39.649Z,30.10
2018-01-12T00:09:39.672Z,28.20
2018-01-12T00:10:39.704Z,28.20
2018-01-12T00:11:39.683Z,28.00
2018-01-12T00:12:39.661Z,28.90
2018-01-12T00:13:39.699Z,27.70
2018-01-12T00:14:39.675Z,27.70
2018-01-12T00:15:39.713Z,27.80
2018-01-12T00:16:39.678Z,27.60
2018-01-12T00:17:39.725Z,28.10
2018-01-12T00:18:39.686Z,28.60
2018-01-12T00:19:39.741Z,28.10
2018-01-12T00:20:39.691Z,29.50
2018-01-12T00:21:39.704Z,27.00
2018-01-12T00:22:39.761Z,28.60
2018-01-12T00:23:39.709Z,28.50
2018-01-12T00:24:39.773Z,28.00
2018-01-12T00:25:39.715Z,27.70
2018-01-12T00:26:39.785Z,28.00
2018-01-12T00:27:39.725Z,28.90
2018-01-12T00:28:39.804Z,27.00
2018-01-12T00:29:39.734Z,27.70
2018-01-12T00:30:39.734Z,26.90
2018-01-12T00:31:39.743Z,26.80
2018-01-12T00:32:39.827Z,27.40
2018-01-12T00:33:39.748Z,26.70
2018-01-12T00:34:39.815Z,26.10
2018-01-12T00:35:39.764Z,27.80
2018-01-12T00:36:39.809Z,26.40
2018-01-12T00:37:39.772Z,27.20
2018-01-12T00:38:39.822Z,27.00
2018-01-12T00:39:39.779Z,26.90
2018-01-12T00:40:39.839Z,26.50
2018-01-12T00:41:39.787Z,26.40
2018-01-12T00:42:39.883Z,26.80
2018-01-12T00:43:39.794Z,25.90
2018-01-12T00:44:39.867Z,27.20
2018-01-12T00:45:39.803Z,25.90
2018-01-12T00:46:39.878Z,24.80
2018-01-12T00:47:39.810Z,25.40
2018-01-12T00:48:39.890Z,25.10
2018-01-12T00:49:39.821Z,26.20
2018-01-12T00:50:39.905Z,25.00
2018-01-12T00:51:39.829Z,24.30
2018-01-12T00:52:39.918Z,25.70
2018-01-12T00:53:39.846Z,24.50
2018-01-12T00:54:39.932Z,25.70
2018-01-12T00:55:39.858Z,25.80
2018-01-12T00:56:39.946Z,25.30
2018-01-12T00:57:39.857Z,26.20
2018-01-12T00:58:39.960Z,24.30
2018-01-12T00:59:40.163Z,23.80
2018-01-12T01:00:39.868Z,24.50
2018-01-12T01:01:39.979Z,25.10
2018-01-12T01:02:39.881Z,24.60
2018-01-12T01:03:39.992Z,24.50
2018-01-12T01:04:39.882Z,24.30
2018-01-12T01:05:39.904Z,23.80
2018-01-12T01:06:39.887Z,24.40
2018-01-12T01:07:39.915Z,23.60
2018-01-12T01:08:39.905Z,23.60
2018-01-12T01:09:39.913Z,24.50
2018-01-12T01:10:39.936Z,24.40
2018-01-12T01:11:39.910Z,24.60
2018-01-12T01:12:39.960Z,23.40
2018-01-12T01:13:39.921Z,24.20
2018-01-12T01:14:39.927Z,23.60
2018-01-12T01:15:39.931Z,22.80
2018-01-12T01:16:39.977Z,23.60
2018-01-12T01:17:39.940Z,23.10
2018-01-12T01:18:39.993Z,22.60
2018-01-12T01:19:39.948Z,22.70
2018-01-12T01:20:40.011Z,23.00
2018-01-12T01:21:39.954Z,23.60
2018-01-12T01:22:39.960Z,24.00
2018-01-12T01:23:40.025Z,24.90
2018-01-12T01:24:39.972Z,24.00
2018-01-12T01:25:40.038Z,23.30
2018-01-12T01:26:39.978Z,22.60
2018-01-12T01:27:40.054Z,23.90
2018-01-12T01:28:39.990Z,24.00
2018-01-12T01:29:39.990Z,23.90
2018-01-12T01:30:40.072Z,23.70
2018-01-12T01:31:40.000Z,23.90
2018-01-12T01:32:40.086Z,24.40
2018-01-12T01:33:40.007Z,23.40
2018-01-12T01:34:40.116Z,23.80
2018-01-12T01:35:40.017Z,25.00
2018-01-12T01:36:40.116Z,24.90
2018-01-12T01:37:40.030Z,24.90
2018-01-12T01:38:40.134Z,25.10
2018-01-12T01:39:40.033Z,23.80
2018-01-12T01:40:41.061Z,25.90
2018-01-12T01:41:40.047Z,25.90
2018-01-12T01:42:40.150Z,24.40
2018-01-12T01:43:40.044Z,24.70
2018-01-12T01:44:40.059Z,23.90
2018-01-12T01:45:40.070Z,24.90
2018-01-12T01:46:40.071Z,24.60
2018-01-12T01:47:40.105Z,24.70
2018-01-12T01:48:40.071Z,24.60
2018-01-12T01:49:40.114Z,24.90
2018-01-12T01:50:40.077Z,23.70
2018-01-12T01:51:40.116Z,23.90
2018-01-12T01:52:40.083Z,25.00
2018-01-12T01:53:40.146Z,23.20
2018-01-12T01:54:40.103Z,23.70
2018-01-12T01:55:40.138Z,23.60
2018-01-12T01:56:40.100Z,22.60
2018-01-12T01:57:40.161Z,25.10
2018-01-12T01:58:40.118Z,23.00
2018-01-12T01:59:40.117Z,22.90
2018-01-12T02:00:40.172Z,24.20
2018-01-12T02:01:40.121Z,23.70
2018-01-12T02:02:40.188Z,23.60
2018-01-12T02:03:40.133Z,24.20
2018-01-12T02:04:40.202Z,24.50
2018-01-12T02:05:40.142Z,22.90
2018-01-12T02:06:40.214Z,24.40
2018-01-12T02:07:40.146Z,24.40
2018-01-12T02:08:40.158Z,24.30
2018-01-12T02:09:40.158Z,24.50
2018-01-12T02:10:40.245Z,24.40
2018-01-12T02:11:40.171Z,23.90
2018-01-12T02:12:40.262Z,23.80
2018-01-12T02:13:40.176Z,24.00
2018-01-12T02:14:40.174Z,23.60
2018-01-12T02:15:40.179Z,23.40
2018-01-12T02:16:40.287Z,24.50
2018-01-12T02:17:40.188Z,24.20
2018-01-12T02:18:40.296Z,25.50
2018-01-12T02:19:40.203Z,23.90
2018-01-12T02:20:40.309Z,24.00
2018-01-12T02:21:40.207Z,24.10
2018-01-12T02:22:40.221Z,25.90
2018-01-12T02:23:40.216Z,25.40
2018-01-12T02:24:40.235Z,25.60
2018-01-12T02:25:40.222Z,26.30
2018-01-12T02:26:40.247Z,25.90
2018-01-12T02:27:40.232Z,25.10
2018-01-12T02:28:40.233Z,25.00
2018-01-12T02:29:40.263Z,24.70
2018-01-12T02:30:40.278Z,24.80
2018-01-12T02:31:40.251Z,24.50
2018-01-12T02:32:40.288Z,24.50
2018-01-12T02:33:40.259Z,25.50
2018-01-12T02:34:40.267Z,23.60
2018-01-12T02:35:40.260Z,25.30
2018-01-12T02:36:40.315Z,24.40
2018-01-12T02:37:40.272Z,23.40
2018-01-12T02:38:40.330Z,24.60
2018-01-12T02:39:40.284Z,23.50
2018-01-12T02:40:40.348Z,22.90
2018-01-12T02:41:40.286Z,23.70
2018-01-12T02:42:40.358Z,22.40
2018-01-12T02:43:40.294Z,23.50
2018-01-12T02:44:40.371Z,23.70
2018-01-12T02:45:40.302Z,24.10
2018-01-12T02:46:40.383Z,23.60
2018-01-12T02:47:40.310Z,24.50
2018-01-12T02:48:40.399Z,24.80
2018-01-12T02:49:40.315Z,25.00
2018-01-12T02:50:40.417Z,25.90
2018-01-12T02:51:40.351Z,24.90
2018-01-12T02:52:40.424Z,24.00
2018-01-12T02:53:40.340Z,24.50
2018-01-12T02:54:40.437Z,24.20
2018-01-12T02:55:40.355Z,23.50
2018-01-12T02:56:40.451Z,24.40
2018-01-12T02:57:40.351Z,24.60
2018-01-12T02:58:40.354Z,23.90
2018-01-12T02:59:40.473Z,24.40
2018-01-12T03:00:40.372Z,23.60
2018-01-12T03:01:40.390Z,23.50
2018-01-12T03:02:40.370Z,23.70
2018-01-12T03:03:40.404Z,24.40
2018-01-12T03:04:40.380Z,23.30
2018-01-12T03:05:40.416Z,24.30
2018-01-12T03:06:40.386Z,23.80
2018-01-12T03:07:40.430Z,23.50
2018-01-12T03:08:40.401Z,23.70
2018-01-12T03:09:40.442Z,23.80
2018-01-12T03:10:40.400Z,23.00
2018-01-12T03:11:40.455Z,23.40
2018-01-12T03:12:40.411Z,23.80
2018-01-12T03:13:40.415Z,23.80
2018-01-12T03:14:40.474Z,23.30
2018-01-12T03:15:40.420Z,23.20
2018-01-12T03:16:40.491Z,23.00
2018-01-12T03:17:40.434Z,22.40
2018-01-12T03:18:40.502Z,23.10
2018-01-12T03:19:40.436Z,22.40
2018-01-12T03:20:40.513Z,23.30
2018-01-12T03:21:40.448Z,21.70
2018-01-12T03:22:40.547Z,22.20
2018-01-12T03:23:40.454Z,22.10
2018-01-12T03:24:40.540Z,22.60
2018-01-12T03:25:40.464Z,22.40
2018-01-12T03:26:40.466Z,22.20
2018-01-12T03:27:40.472Z,22.50
2018-01-12T03:28:40.568Z,23.10
2018-01-12T03:29:40.478Z,23.00
2018-01-12T03:30:40.584Z,22.80
2018-01-12T03:31:40.487Z,22.50
2018-01-12T03:32:40.604Z,22.20
2018-01-12T03:33:40.494Z,21.90
2018-01-12T03:34:40.614Z,22.30
2018-01-12T03:35:40.498Z,22.30
2018-01-12T03:36:40.513Z,22.50
2018-01-12T03:37:40.508Z,22.40
2018-01-12T03:38:40.538Z,23.00
2018-01-12T03:39:40.516Z,22.70
2018-01-12T03:40:40.549Z,22.20
2018-01-12T03:41:40.528Z,22.30
2018-01-12T03:42:40.529Z,22.60
2018-01-12T03:43:40.569Z,22.30
2018-01-12T03:44:40.551Z,22.40
2018-01-12T03:45:40.581Z,23.50
2018-01-12T03:46:40.546Z,23.60
2018-01-12T03:47:41.620Z,23.10
2018-01-12T03:48:40.556Z,23.10
2018-01-12T03:49:40.610Z,22.60
2018-01-12T03:50:40.562Z,22.00
2018-01-12T03:51:40.624Z,22.20
2018-01-12T03:52:40.570Z,22.20
2018-01-12T03:53:40.644Z,22.20
2018-01-12T03:54:40.581Z,23.20
2018-01-12T03:55:40.653Z,22.30
2018-01-12T03:56:40.587Z,22.90
2018-01-12T03:57:40.668Z,22.00
2018-01-12T03:58:41.381Z,21.90
2018-01-12T03:59:40.690Z,22.90
2018-01-12T04:00:40.595Z,22.90
2018-01-12T04:01:40.692Z,22.50
2018-01-12T04:02:40.608Z,23.50
2018-01-12T04:03:40.610Z,22.70
2018-01-12T04:04:40.615Z,22.60
2018-01-12T04:05:40.720Z,22.90
2018-01-12T04:06:40.622Z,22.00
2018-01-12T04:07:40.729Z,22.40
2018-01-12T04:08:40.685Z,21.70
2018-01-12T04:09:40.753Z,21.90
2018-01-12T04:10:40.640Z,23.30
2018-01-12T04:11:40.641Z,24.10
2018-01-12T04:12:40.664Z,23.90
2018-01-12T04:13:40.651Z,22.80
2018-01-12T04:14:40.656Z,23.00
2018-01-12T04:15:40.663Z,23.50
2018-01-12T04:16:40.695Z,23.90
2018-01-12T04:17:40.666Z,23.30
2018-01-12T04:18:40.705Z,23.00
2018-01-12T04:19:40.674Z,23.50
2018-01-12T04:20:40.719Z,22.70
2018-01-12T04:21:40.684Z,23.80
2018-01-12T04:22:40.766Z,23.10
2018-01-12T04:23:40.691Z,22.60
2018-01-12T04:24:40.748Z,23.00
2018-01-12T04:25:40.707Z,23.70
2018-01-12T04:26:40.713Z,22.90
2018-01-12T04:27:40.768Z,22.20
2018-01-12T04:28:40.710Z,22.80
2018-01-12T04:29:40.780Z,23.50
2018-01-12T04:30:40.723Z,23.50
2018-01-12T04:31:40.717Z,22.40
2018-01-12T04:32:40.804Z,22.40
2018-01-12T04:33:40.739Z,21.80
2018-01-12T04:34:40.813Z,22.50
2018-01-12T04:35:40.741Z,21.90
2018-01-12T04:36:40.744Z,22.50
2018-01-12T04:37:40.838Z,22.80
2018-01-12T04:38:40.748Z,23.30
2018-01-12T04:39:40.849Z,23.30
2018-01-12T04:40:40.756Z,21.90
2018-01-12T04:41:40.758Z,23.00
2018-01-12T04:42:40.867Z,22.90
2018-01-12T04:43:40.770Z,21.80
2018-01-12T04:44:40.880Z,22.40
2018-01-12T04:45:40.772Z,21.80
2018-01-12T04:46:40.789Z,22.20
2018-01-12T04:47:40.782Z,22.20
2018-01-12T04:48:40.804Z,22.30
2018-01-12T04:49:40.789Z,22.60
2018-01-12T04:50:40.817Z,22.10
2018-01-12T04:51:40.801Z,22.90
2018-01-12T04:52:40.837Z,23.40
2018-01-12T04:53:40.805Z,22.80
2018-01-12T04:54:40.850Z,22.90
2018-01-12T04:55:40.814Z,22.80
2018-01-12T04:56:40.862Z,23.80
2018-01-12T04:57:40.820Z,22.70
2018-01-12T04:58:40.879Z,22.90
2018-01-12T04:59:40.830Z,23.00
2018-01-12T05:00:40.889Z,23.30
2018-01-12T05:01:40.837Z,22.80
2018-01-12T05:02:40.912Z,23.40
2018-01-12T05:03:40.845Z,22.10
2018-01-12T05:04:40.921Z,22.50
2018-01-12T05:05:40.853Z,22.50
2018-01-12T05:06:40.936Z,22.80
2018-01-12T05:07:40.869Z,23.50
2018-01-12T05:08:40.948Z,23.10
2018-01-12T05:09:40.867Z,22.60
2018-01-12T05:10:40.879Z,22.70
2018-01-12T05:11:40.969Z,23.00
2018-01-12T05:12:40.897Z,23.00
2018-01-12T05:13:40.981Z,24.00
2018-01-12T05:14:40.886Z,23.80
2018-01-12T05:15:40.996Z,23.80
2018-01-12T05:16:40.899Z,24.30
2018-01-12T05:17:41.010Z,23.30
2018-01-12T05:18:40.903Z,23.70
2018-01-12T05:19:41.022Z,23.80
2018-01-12T05:20:40.914Z,23.60
2018-01-12T05:21:40.935Z,23.50
2018-01-12T05:22:40.912Z,23.80
2018-01-12T05:23:40.944Z,24.30
2018-01-12T05:24:40.921Z,23.90
2018-01-12T05:25:40.926Z,24.20
2018-01-12T05:26:40.968Z,24.10
2018-01-12T05:27:40.936Z,24.20
2018-01-12T05:28:40.981Z,23.70
2018-01-12T05:29:40.944Z,22.70
2018-01-12T05:30:40.997Z,22.40
2018-01-12T05:31:40.952Z,23.20
2018-01-12T05:32:41.008Z,23.30
2018-01-12T05:33:40.969Z,23.10
2018-01-12T05:34:41.017Z,24.00
2018-01-12T05:35:40.961Z,24.00
2018-01-12T05:36:41.040Z,24.10
2018-01-12T05:37:40.969Z,24.70
2018-01-12T05:38:41.044Z,25.60
2018-01-12T05:39:40.982Z,24.70
2018-01-12T05:40:40.986Z,25.10
2018-01-12T05:41:41.070Z,24.30
2018-01-12T05:42:40.993Z,25.80
2018-01-12T05:43:41.078Z,25.80
2018-01-12T05:44:41.001Z,24.80
2018-01-12T05:45:41.108Z,26.50
2018-01-12T05:46:41.018Z,25.70
2018-01-12T05:47:41.110Z,27.60
2018-01-12T05:48:41.023Z,28.60
2018-01-12T05:49:41.122Z,26.90
2018-01-12T05:50:41.026Z,25.80
2018-01-12T05:51:41.136Z,28.70
2018-01-12T05:52:41.031Z,27.40
2018-01-12T05:53:41.059Z,26.40
2018-01-12T05:54:41.038Z,27.90
2018-01-12T05:55:41.043Z,27.30
2018-01-12T05:56:41.074Z,27.30
2018-01-12T05:57:41.073Z,28.30
2018-01-12T05:58:41.081Z,27.70
2018-01-12T05:59:41.061Z,27.80
2018-01-12T06:00:41.094Z,28.70
2018-01-12T06:01:41.063Z,27.70
2018-01-12T06:02:41.107Z,27.80
2018-01-12T06:03:41.079Z,27.60
2018-01-12T06:04:41.121Z,32.50
2018-01-12T06:05:41.078Z,30.40
2018-01-12T06:06:41.134Z,28.60
2018-01-12T06:07:41.090Z,27.70
2018-01-12T06:08:41.149Z,29.00
2018-01-12T06:09:41.091Z,28.50
2018-01-12T06:10:41.162Z,28.70
2018-01-12T06:11:41.103Z,28.70
2018-01-12T06:12:41.177Z,28.50
2018-01-12T06:13:41.105Z,28.70
2018-01-12T06:14:41.188Z,29.70
2018-01-12T06:15:41.131Z,30.40
2018-01-12T06:16:41.201Z,29.80
2018-01-12T06:17:41.124Z,29.40
2018-01-12T06:18:41.219Z,29.00
2018-01-12T06:19:41.131Z,28.90
2018-01-12T06:20:41.245Z,28.90
2018-01-12T06:21:41.147Z,28.90
2018-01-12T06:22:41.244Z,27.80
2018-01-12T06:23:41.149Z,28.10
2018-01-12T06:24:41.152Z,29.00
2018-01-12T06:25:41.266Z,29.10
2018-01-12T06:26:41.160Z,29.10
2018-01-12T06:27:41.175Z,28.60
2018-01-12T06:28:41.165Z,29.10
2018-01-12T06:29:41.185Z,30.80
2018-01-12T06:30:41.903Z,29.60
2018-01-12T06:31:41.204Z,28.70
2018-01-12T06:32:41.180Z,29.40
2018-01-12T06:33:41.243Z,29.10
2018-01-12T06:34:41.182Z,28.80
2018-01-12T06:35:41.230Z,28.90
2018-01-12T06:36:41.195Z,27.80
2018-01-12T06:37:41.243Z,29.50
2018-01-12T06:38:41.200Z,28.30
2018-01-12T06:39:41.207Z,28.60
2018-01-12T06:40:41.261Z,28.70
2018-01-12T06:41:41.221Z,27.90
2018-01-12T06:42:41.276Z,27.60
2018-01-12T06:43:41.237Z,28.50
2018-01-12T06:44:41.293Z,27.90
2018-01-12T06:45:41.228Z,27.90
2018-01-12T06:46:41.239Z,28.00
2018-01-12T06:47:41.311Z,28.50
2018-01-12T06:48:41.249Z,29.20
2018-01-12T06:49:41.331Z,29.60
2018-01-12T06:50:41.248Z,29.70
2018-01-12T06:51:41.338Z,30.00
2018-01-12T06:52:41.252Z,28.90
2018-01-12T06:53:41.352Z,31.50
2018-01-12T06:54:41.276Z,30.40
2018-01-12T06:55:41.366Z,30.40
2018-01-12T06:56:41.267Z,32.80
2018-01-12T06:57:41.381Z,30.90
2018-01-12T06:58:41.279Z,31.80
2018-01-12T06:59:41.404Z,30.10
2018-01-12T07:00:41.282Z,31.60
2018-01-12T07:01:41.304Z,30.40
2018-01-12T07:02:41.290Z,30.80
2018-01-12T07:03:41.317Z,30.90
2018-01-12T07:04:41.300Z,30.90
2018-01-12T07:05:41.331Z,31.30
2018-01-12T07:06:41.304Z,30.80
2018-01-12T07:07:41.345Z,30.90
2018-01-12T07:08:41.312Z,31.40
2018-01-12T07:09:41.356Z,32.50
2018-01-12T07:10:41.321Z,31.60
2018-01-12T07:11:41.328Z,31.10
2018-01-12T07:12:41.324Z,31.50
2018-01-12T07:13:41.387Z,30.40
2018-01-12T07:14:41.338Z,31.70
2018-01-12T07:15:41.399Z,31.60
2018-01-12T07:16:41.342Z,31.80
2018-01-12T07:17:41.346Z,30.50
2018-01-12T07:18:41.346Z,33.00
2018-01-12T07:19:41.439Z,32.20
2018-01-12T07:20:41.355Z,32.50
2018-01-12T07:21:41.439Z,33.00
2018-01-12T07:22:41.360Z,31.10
2018-01-12T07:23:41.369Z,32.50
2018-01-12T07:24:41.373Z,31.30
2018-01-12T07:25:41.378Z,32.70
2018-01-12T07:26:41.376Z,32.30
2018-01-12T07:27:41.381Z,32.90
2018-01-12T07:28:41.389Z,32.10
2018-01-12T07:29:41.387Z,32.60
2018-01-12T07:30:41.401Z,32.80
2018-01-12T07:31:41.426Z,34.20
2018-01-12T07:32:41.398Z,33.50
2018-01-12T07:33:41.444Z,32.90
2018-01-12T07:34:41.409Z,33.50
2018-01-12T07:35:41.432Z,33.50
2018-01-12T07:36:41.418Z,33.50
2018-01-12T07:37:41.447Z,33.30
2018-01-12T07:38:41.419Z,32.40
2018-01-12T07:39:47.500Z,33.00
2018-01-12T07:40:41.441Z,32.50
2018-01-12T07:41:41.472Z,31.60
2018-01-12T07:42:41.439Z,31.80
2018-01-12T07:43:41.519Z,31.60
2018-01-12T07:44:41.483Z,31.60
2018-01-12T07:45:42.525Z,35.60
2018-01-12T07:46:41.461Z,39.70
2018-01-12T07:47:41.515Z,40.30
2018-01-12T07:48:41.462Z,37.60
2018-01-12T07:49:41.524Z,37.40
2018-01-12T07:50:41.476Z,40.00
2018-01-12T07:51:41.549Z,37.70
2018-01-12T07:52:41.487Z,36.60
2018-01-12T07:53:41.555Z,36.80
2018-01-12T07:54:41.505Z,38.10
2018-01-12T07:55:41.575Z,39.50
2018-01-12T07:56:41.488Z,37.60
2018-01-12T07:57:42.505Z,38.30
2018-01-12T07:58:41.492Z,36.70
2018-01-12T07:59:41.607Z,39.40
2018-01-12T08:00:41.503Z,37.80
2018-01-12T08:01:41.615Z,42.70
2018-01-12T08:02:41.515Z,38.50
2018-01-12T08:03:41.628Z,39.60
2018-01-12T08:04:41.518Z,37.40
2018-01-12T08:05:41.539Z,41.40
2018-01-12T08:06:41.521Z,39.70
2018-01-12T08:07:41.556Z,39.40
2018-01-12T08:08:41.532Z,38.40
2018-01-12T08:09:41.564Z,39.30
2018-01-12T08:10:41.538Z,38.00
2018-01-12T08:11:42.610Z,37.60
2018-01-12T08:12:41.546Z,37.70
2018-01-12T08:13:41.591Z,36.10
2018-01-12T08:14:41.551Z,37.50
2018-01-12T08:15:41.611Z,36.50
2018-01-12T08:16:41.563Z,36.10
2018-01-12T08:17:41.616Z,36.00
2018-01-12T08:18:41.564Z,36.40
2018-01-12T08:19:41.626Z,34.60
2018-01-12T08:20:41.575Z,34.70
2018-01-12T08:21:41.645Z,36.10
2018-01-12T08:22:41.582Z,36.00
2018-01-12T08:23:42.682Z,35.80
2018-01-12T08:24:41.626Z,34.10
2018-01-12T08:25:42.695Z,36.50
2018-01-12T08:26:41.609Z,38.90
2018-01-12T08:27:41.692Z,38.90
2018-01-12T08:28:41.609Z,42.30
2018-01-12T08:29:42.721Z,42.30
2018-01-12T08:30:41.610Z,44.20
2018-01-12T08:31:42.634Z,40.80
2018-01-12T08:32:41.645Z,38.10
2018-01-12T08:33:41.727Z,39.90
2018-01-12T08:34:41.635Z,39.90
2018-01-12T08:35:41.733Z,37.70
2018-01-12T08:36:41.636Z,40.00
2018-01-12T08:37:41.645Z,40.70
2018-01-12T08:38:41.639Z,39.10
2018-01-12T08:39:41.678Z,39.50
2018-01-12T08:40:41.649Z,37.60
2018-01-12T08:41:41.681Z,38.90
2018-01-12T08:42:41.649Z,44.50
2018-01-12T08:43:42.715Z,43.10
2018-01-12T08:44:41.663Z,40.30
2018-01-12T08:45:41.709Z,41.80
2018-01-12T08:46:41.681Z,43.40
2018-01-12T08:47:41.715Z,44.60
2018-01-12T08:48:41.684Z,43.50
2018-01-12T08:49:41.686Z,39.10
2018-01-12T08:50:41.687Z,41.00
2018-01-12T08:51:41.704Z,42.20
2018-01-12T08:52:41.694Z,39.20
2018-01-12T08:53:42.739Z,40.50
2018-01-12T08:54:41.701Z,39.60
2018-01-12T08:55:41.746Z,41.30
2018-01-12T08:56:41.850Z,41.20
2018-01-12T08:57:42.768Z,40.80
2018-01-12T08:58:41.706Z,37.70
2018-01-12T08:59:41.760Z,40.40
2018-01-12T09:00:41.716Z,39.60
2018-01-12T09:01:41.771Z,37.60
2018-01-12T09:02:41.728Z,42.70
2018-01-12T09:03:41.782Z,36.20
2018-01-12T09:04:41.731Z,36.60
2018-01-12T09:05:41.793Z,37.70
2018-01-12T09:06:41.737Z,36.60
2018-01-12T09:07:41.810Z,36.20
2018-01-12T09:08:41.744Z,35.50
2018-01-12T09:09:41.822Z,35.20
2018-01-12T09:10:41.757Z,36.20
2018-01-12T09:11:41.837Z,38.80
2018-01-12T09:12:41.759Z,37.90
2018-01-12T09:13:41.850Z,38.40
2018-01-12T09:14:41.766Z,39.00
2018-01-12T09:15:42.886Z,37.50
2018-01-12T09:16:41.773Z,34.60
2018-01-12T09:17:41.882Z,36.20
2018-01-12T09:18:41.787Z,36.20
2018-01-12T09:19:41.895Z,36.40
2018-01-12T09:20:41.799Z,36.40
2018-01-12T09:21:41.906Z,35.60
2018-01-12T09:22:41.797Z,34.80
2018-01-12T09:23:41.819Z,34.50
2018-01-12T09:24:41.823Z,36.00
2018-01-12T09:25:41.830Z,35.50
2018-01-12T09:26:41.810Z,35.30
2018-01-12T09:27:41.843Z,34.50
2018-01-12T09:28:41.815Z,35.00
2018-01-12T09:29:41.857Z,32.40
2018-01-12T09:30:41.827Z,36.40
2018-01-12T09:31:41.870Z,35.50
2018-01-12T09:32:41.850Z,35.30
2018-01-12T09:33:41.885Z,39.10
2018-01-12T09:34:41.840Z,37.40
2018-01-12T09:35:41.899Z,33.10
2018-01-12T09:36:41.851Z,35.50
2018-01-12T09:37:41.908Z,34.20
2018-01-12T09:38:41.856Z,35.60
2018-01-12T09:39:41.922Z,34.40
2018-01-12T09:40:41.859Z,35.50
2018-01-12T09:41:41.934Z,37.00
2018-01-12T09:42:41.866Z,32.80
2018-01-12T09:43:41.949Z,31.70
2018-01-12T09:44:41.919Z,32.30
2018-01-12T09:45:41.964Z,32.30
2018-01-12T09:46:41.882Z,34.10
2018-01-12T09:47:41.979Z,34.00
2018-01-12T09:48:41.889Z,33.20
2018-01-12T09:49:41.994Z,33.90
2018-01-12T09:50:41.893Z,33.40
2018-01-12T09:51:42.007Z,33.60
2018-01-12T09:52:41.902Z,33.40
2018-01-12T09:53:42.020Z,31.70
2018-01-12T09:54:41.907Z,33.70
2018-01-12T09:55:42.954Z,33.90
2018-01-12T09:56:41.914Z,33.20
2018-01-12T09:57:41.943Z,32.90
2018-01-12T09:58:41.921Z,31.90
2018-01-12T09:59:41.956Z,33.90
2018-01-12T10:00:41.931Z,35.80
2018-01-12T10:01:41.973Z,32.30
2018-01-12T10:02:41.937Z,33.40
2018-01-12T10:03:44.030Z,34.70
2018-01-12T10:04:41.958Z,33.30
2018-01-12T10:05:42.026Z,32.90
2018-01-12T10:06:41.949Z,31.90
2018-01-12T10:07:43.040Z,31.40
2018-01-12T10:08:41.959Z,31.80
2018-01-12T10:09:42.031Z,31.80
2018-01-12T10:10:41.996Z,31.00
2018-01-12T10:11:46.955Z,32.40
2018-01-12T10:12:41.996Z,33.10
2018-01-12T10:13:42.058Z,34.20
2018-01-12T10:14:41.989Z,32.10
2018-01-12T10:15:42.087Z,31.80
2018-01-12T10:16:41.988Z,31.60
2018-01-12T10:17:46.998Z,30.30
2018-01-12T10:18:42.003Z,31.10
2018-01-12T10:19:43.012Z,30.80
2018-01-12T10:20:42.003Z,29.70
2018-01-12T10:21:42.108Z,29.80
2018-01-12T10:22:42.008Z,31.00
2018-01-12T10:23:42.120Z,30.40
2018-01-12T10:24:42.013Z,30.10
2018-01-12T10:25:48.997Z,31.80
2018-01-12T10:26:42.018Z,35.50
2018-01-12T10:27:44.095Z,33.50
2018-01-12T10:28:42.030Z,31.50
2018-01-12T10:29:42.057Z,31.90
2018-01-12T10:30:42.036Z,31.30
2018-01-12T10:31:42.078Z,29.90
2018-01-12T10:32:42.048Z,30.60
2018-01-12T10:33:44.135Z,30.20
2018-01-12T10:34:42.047Z,29.90
2018-01-12T10:35:42.101Z,29.80
2018-01-12T10:36:42.062Z,30.60
2018-01-12T10:37:42.114Z,31.20
2018-01-12T10:38:42.075Z,30.50
2018-01-12T10:39:42.125Z,29.30
2018-01-12T10:40:42.073Z,30.10
2018-01-12T10:41:42.139Z,30.60
2018-01-12T10:42:42.079Z,29.40
2018-01-12T10:43:43.186Z,30.10
2018-01-12T10:44:42.085Z,28.40
2018-01-12T10:45:43.190Z,30.30
2018-01-12T10:46:42.090Z,28.80
2018-01-12T10:47:42.179Z,29.90
2018-01-12T10:48:42.151Z,28.60
2018-01-12T10:49:43.222Z,28.70
2018-01-12T10:50:42.108Z,29.60
2018-01-12T10:51:42.210Z,29.20
2018-01-12T10:52:42.121Z,29.30
2018-01-12T10:53:42.218Z,30.00
2018-01-12T10:54:42.117Z,29.80
2018-01-12T10:55:42.236Z,28.90
2018-01-12T10:56:42.134Z,30.00
2018-01-12T10:57:42.146Z,29.60
2018-01-12T10:58:42.136Z,31.20
2018-01-12T10:59:42.164Z,30.70
2018-01-12T11:00:42.143Z,31.60
2018-01-12T11:01:42.171Z,31.20
2018-01-12T11:02:42.145Z,31.10
2018-01-12T11:03:42.188Z,32.30
2018-01-12T11:04:42.156Z,30.10
2018-01-12T11:05:43.225Z,30.40
2018-01-12T11:06:42.157Z,30.70
2018-01-12T11:07:42.210Z,29.60
2018-01-12T11:08:42.169Z,30.40
2018-01-12T11:09:42.231Z,29.80
2018-01-12T11:10:42.182Z,31.10
2018-01-12T11:11:42.239Z,30.40
2018-01-12T11:12:42.181Z,31.00
2018-01-12T11:13:42.256Z,31.50
2018-01-12T11:14:42.184Z,29.80
2018-01-12T11:15:42.268Z,29.40
2018-01-12T11:16:42.195Z,29.20
2018-01-12T11:17:42.280Z,31.30
2018-01-12T11:18:42.203Z,32.30
2018-01-12T11:19:42.293Z,31.40
2018-01-12T11:20:42.217Z,29.90
2018-01-12T11:21:43.238Z,30.20
2018-01-12T11:22:42.215Z,30.00
2018-01-12T11:23:42.320Z,30.60
2018-01-12T11:24:42.224Z,32.30
2018-01-12T11:25:42.335Z,31.00
2018-01-12T11:26:42.230Z,31.30
2018-01-12T11:27:42.250Z,30.40
2018-01-12T11:28:42.250Z,30.40
2018-01-12T11:29:42.264Z,29.90
2018-01-12T11:30:42.243Z,30.40
2018-01-12T11:31:42.276Z,28.60
2018-01-12T11:32:42.252Z,30.80
2018-01-12T11:33:42.290Z,31.50
2018-01-12T11:34:42.254Z,30.20
2018-01-12T11:35:43.328Z,28.70
2018-01-12T11:36:42.269Z,27.90
2018-01-12T11:37:42.318Z,28.00
2018-01-12T11:38:42.273Z,28.60
2018-01-12T11:39:43.355Z,28.40
2018-01-12T11:40:42.277Z,27.70
2018-01-12T11:41:42.285Z,27.30
2018-01-12T11:42:42.351Z,28.30
2018-01-12T11:43:42.295Z,26.80
2018-01-12T11:44:42.361Z,28.80
2018-01-12T11:45:42.300Z,28.50
2018-01-12T11:46:42.305Z,28.20
2018-01-12T11:47:42.310Z,28.00
2018-01-12T11:48:42.307Z,26.70
2018-01-12T11:49:42.397Z,26.70
2018-01-12T11:50:42.321Z,26.20
2018-01-12T11:51:42.410Z,25.70
2018-01-12T11:52:42.318Z,27.20
2018-01-12T11:53:43.346Z,27.70
2018-01-12T11:54:42.328Z,28.00
2018-01-12T11:55:42.443Z,27.60
2018-01-12T11:56:42.334Z,26.60
2018-01-12T11:57:43.377Z,26.70
2018-01-12T11:58:42.341Z,26.40
2018-01-12T11:59:42.363Z,26.90
2018-01-12T12:00:42.352Z,26.80
2018-01-12T12:01:42.378Z,26.60
2018-01-12T12:02:42.351Z,27.30
2018-01-12T12:03:42.405Z,27.20
2018-01-12T12:04:42.366Z,26.70
2018-01-12T12:05:42.404Z,26.10
2018-01-12T12:06:42.370Z,25.30
2018-01-12T12:07:42.478Z,25.00
2018-01-12T12:08:42.381Z,24.80
2018-01-12T12:09:42.394Z,25.20
2018-01-12T12:10:42.378Z,25.00
2018-01-12T12:11:42.404Z,24.40
2018-01-12T12:12:42.389Z,25.60
2018-01-12T12:13:42.432Z,26.50
2018-01-12T12:14:42.393Z,27.20
2018-01-12T12:15:42.433Z,29.50
2018-01-12T12:16:42.406Z,27.20
2018-01-12T12:17:43.478Z,27.30
2018-01-12T12:18:42.406Z,27.00
2018-01-12T12:19:42.462Z,25.50
2018-01-12T12:20:42.420Z,26.60
2018-01-12T12:21:43.508Z,25.30
2018-01-12T12:22:42.430Z,25.30
2018-01-12T12:23:42.486Z,24.10
2018-01-12T12:24:42.436Z,24.30
2018-01-12T12:25:42.506Z,24.40
2018-01-12T12:26:42.436Z,24.80
2018-01-12T12:27:42.513Z,25.30
2018-01-12T12:28:42.440Z,25.40
2018-01-12T12:29:42.530Z,25.00
2018-01-12T12:30:42.454Z,26.60
2018-01-12T12:31:44.486Z,25.00
2018-01-12T12:32:42.465Z,26.10
2018-01-12T12:33:42.557Z,25.60
2018-01-12T12:34:42.462Z,24.90
2018-01-12T12:35:42.571Z,24.70
2018-01-12T12:36:42.473Z,25.80
2018-01-12T12:37:42.593Z,26.80
2018-01-12T12:38:42.508Z,26.30
2018-01-12T12:39:43.518Z,26.10
2018-01-12T12:40:42.483Z,27.30
2018-01-12T12:41:42.510Z,26.90
2018-01-12T12:42:42.495Z,26.30
2018-01-12T12:43:42.522Z,27.50
2018-01-12T12:44:42.505Z,27.70
2018-01-12T12:45:44.598Z,26.20
2018-01-12T12:46:42.505Z,26.90
2018-01-12T12:47:42.589Z,25.80
2018-01-12T12:48:42.517Z,27.10
2018-01-12T12:49:43.659Z,26.30
2018-01-12T12:50:42.519Z,26.20
2018-01-12T12:51:43.584Z,27.40
2018-01-12T12:52:42.531Z,27.70